sensor_id;sensor_type;location;lat;lon;timestamp;P1;durP1;ratioP1;P2;durP2;ratioP2
8562;SDS011;16392;52.508;13.468;2024-03-23T00:53:19;9.52;;;2.17;;
8562;SDS011;16392;52.508;13.468;2024-03-23T00:55:45;8.45;;;1.85;;
8562;SDS011;16392;52.508;13.468;2024-03-23T00:58:11;8.63;;;2.30;;
8562;SDS011;16392;52.508;13.468;2024-03-23T01:00:38;11.68;;;2.10;;
8562;SDS011;16392;52.508;13.468;2024-03-23T01:03:04;8.88;;;2.45;;
8562;SDS011;16392;52.508;13.468;2024-03-23T01:05:30;10.30;;;2.88;;
8562;SDS011;16392;52.508;13.468;2024-03-23T01:07:56;12.60;;;2.30;;
8562;SDS011;16392;52.508;13.468;2024-03-23T01:10:24;5.88;;;2.05;;
8562;SDS011;16392;52.508;13.468;2024-03-23T01:12:50;13.85;;;2.42;;
8562;SDS011;16392;52.508;13.468;2024-03-23T01:15:17;6.35;;;2.70;;
8562;SDS011;16392;52.508;13.468;2024-03-23T01:17:43;12.52;;;2.10;;
8562;SDS011;16392;52.508;13.468;2024-03-23T01:20:09;14.15;;;2.15;;
8562;SDS011;16392;52.508;13.468;2024-03-23T01:22:35;11.75;;;2.63;;
8562;SDS011;16392;52.508;13.468;2024-03-23T01:25:02;10.48;;;2.10;;
8562;SDS011;16392;52.508;13.468;2024-03-23T01:27:29;11.10;;;2.10;;
8562;SDS011;16392;52.508;13.468;2024-03-23T01:29:56;11.40;;;2.25;;
8562;SDS011;16392;52.508;13.468;2024-03-23T01:32:22;9.80;;;2.30;;
8562;SDS011;16392;52.508;13.468;2024-03-23T01:34:48;8.68;;;1.92;;
8562;SDS011;16392;52.508;13.468;2024-03-23T01:37:14;5.90;;;2.08;;
8562;SDS011;16392;52.508;13.468;2024-03-23T01:39:41;9.98;;;2.08;;
8562;SDS011;16392;52.508;13.468;2024-03-23T01:42:07;7.40;;;2.08;;
8562;SDS011;16392;52.508;13.468;2024-03-23T01:44:35;12.07;;;2.70;;
8562;SDS011;16392;52.508;13.468;2024-03-23T01:47:01;13.00;;;2.38;;
8562;SDS011;16392;52.508;13.468;2024-03-23T01:49:27;5.45;;;1.88;;
8562;SDS011;16392;52.508;13.468;2024-03-23T01:51:53;11.38;;;2.28;;
8562;SDS011;16392;52.508;13.468;2024-03-23T01:54:20;7.72;;;2.50;;
8562;SDS011;16392;52.508;13.468;2024-03-23T01:56:46;6.80;;;2.38;;
8562;SDS011;16392;52.508;13.468;2024-03-23T01:59:13;13.68;;;2.75;;
8562;SDS011;16392;52.508;13.468;2024-03-23T02:01:40;7.90;;;2.50;;
8562;SDS011;16392;52.508;13.468;2024-03-23T02:04:07;11.43;;;2.08;;
8562;SDS011;16392;52.508;13.468;2024-03-23T02:06:34;15.20;;;2.83;;
8562;SDS011;16392;52.508;13.468;2024-03-23T02:09:01;14.15;;;2.58;;
8562;SDS011;16392;52.508;13.468;2024-03-23T02:11:29;9.50;;;2.50;;
8562;SDS011;16392;52.508;13.468;2024-03-23T02:13:55;10.10;;;2.60;;
8562;SDS011;16392;52.508;13.468;2024-03-23T02:16:21;6.38;;;2.25;;
8562;SDS011;16392;52.508;13.468;2024-03-23T02:18:50;13.25;;;3.15;;
8562;SDS011;16392;52.508;13.468;2024-03-23T02:21:17;7.30;;;2.17;;
8562;SDS011;16392;52.508;13.468;2024-03-23T02:23:45;10.63;;;2.92;;
8562;SDS011;16392;52.508;13.468;2024-03-23T02:26:11;12.48;;;2.88;;
8562;SDS011;16392;52.508;13.468;2024-03-23T02:28:39;7.18;;;2.20;;
8562;SDS011;16392;52.508;13.468;2024-03-23T02:31:04;7.30;;;2.03;;
8562;SDS011;16392;52.508;13.468;2024-03-23T02:33:32;9.68;;;2.58;;
8562;SDS011;16392;52.508;13.468;2024-03-23T02:35:59;5.60;;;1.95;;
8562;SDS011;16392;52.508;13.468;2024-03-23T02:38:26;9.48;;;2.47;;
8562;SDS011;16392;52.508;13.468;2024-03-23T02:40:53;11.85;;;2.78;;
8562;SDS011;16392;52.508;13.468;2024-03-23T02:43:20;16.20;;;2.90;;
8562;SDS011;16392;52.508;13.468;2024-03-23T02:45:45;10.68;;;2.78;;
8562;SDS011;16392;52.508;13.468;2024-03-23T02:48:12;16.85;;;3.25;;
8562;SDS011;16392;52.508;13.468;2024-03-23T02:50:38;18.52;;;3.47;;
8562;SDS011;16392;52.508;13.468;2024-03-23T02:53:04;8.10;;;2.58;;
8562;SDS011;16392;52.508;13.468;2024-03-23T02:55:30;11.27;;;2.97;;
8562;SDS011;16392;52.508;13.468;2024-03-23T02:57:59;8.98;;;2.78;;
8562;SDS011;16392;52.508;13.468;2024-03-23T03:00:27;8.90;;;2.53;;
8562;SDS011;16392;52.508;13.468;2024-03-23T03:02:54;8.90;;;2.55;;
8562;SDS011;16392;52.508;13.468;2024-03-23T03:05:19;14.57;;;3.47;;
8562;SDS011;16392;52.508;13.468;2024-03-23T03:07:46;8.50;;;2.55;;
8562;SDS011;16392;52.508;13.468;2024-03-23T03:10:12;8.60;;;2.33;;
8562;SDS011;16392;52.508;13.468;2024-03-23T03:12:39;9.48;;;2.80;;
8562;SDS011;16392;52.508;13.468;2024-03-23T03:15:07;10.73;;;2.47;;
8562;SDS011;16392;52.508;13.468;2024-03-23T03:17:35;15.35;;;3.25;;
8562;SDS011;16392;52.508;13.468;2024-03-23T03:20:00;16.00;;;3.63;;
8562;SDS011;16392;52.508;13.468;2024-03-23T03:22:30;10.00;;;2.65;;
8562;SDS011;16392;52.508;13.468;2024-03-23T03:24:56;13.55;;;3.40;;
8562;SDS011;16392;52.508;13.468;2024-03-23T03:27:23;13.10;;;2.60;;
8562;SDS011;16392;52.508;13.468;2024-03-23T03:29:49;10.85;;;3.25;;
8562;SDS011;16392;52.508;13.468;2024-03-23T03:32:17;12.10;;;2.67;;
8562;SDS011;16392;52.508;13.468;2024-03-23T03:34:43;11.85;;;2.92;;
8562;SDS011;16392;52.508;13.468;2024-03-23T03:37:10;11.98;;;3.05;;
8562;SDS011;16392;52.508;13.468;2024-03-23T03:39:35;14.63;;;3.17;;
8562;SDS011;16392;52.508;13.468;2024-03-23T03:42:02;9.52;;;2.92;;
8562;SDS011;16392;52.508;13.468;2024-03-23T03:44:31;15.98;;;3.90;;
8562;SDS011;16392;52.508;13.468;2024-03-23T03:46:59;9.68;;;3.78;;
8562;SDS011;16392;52.508;13.468;2024-03-23T03:49:26;9.13;;;3.35;;
8562;SDS011;16392;52.508;13.468;2024-03-23T03:51:53;9.30;;;3.15;;
8562;SDS011;16392;52.508;13.468;2024-03-23T03:54:20;14.52;;;2.90;;
8562;SDS011;16392;52.508;13.468;2024-03-23T03:56:47;10.57;;;2.65;;
8562;SDS011;16392;52.508;13.468;2024-03-23T03:59:13;8.43;;;2.67;;
8562;SDS011;16392;52.508;13.468;2024-03-23T04:01:39;4.88;;;2.15;;
8562;SDS011;16392;52.508;13.468;2024-03-23T04:04:05;7.45;;;2.58;;
8562;SDS011;16392;52.508;13.468;2024-03-23T04:06:33;8.93;;;2.65;;
8562;SDS011;16392;52.508;13.468;2024-03-23T04:08:59;9.40;;;2.47;;
8562;SDS011;16392;52.508;13.468;2024-03-23T04:11:26;7.18;;;2.40;;
8562;SDS011;16392;52.508;13.468;2024-03-23T04:13:51;8.85;;;2.20;;
8562;SDS011;16392;52.508;13.468;2024-03-23T04:16:24;5.15;;;1.85;;
8562;SDS011;16392;52.508;13.468;2024-03-23T04:18:51;10.88;;;2.35;;
8562;SDS011;16392;52.508;13.468;2024-03-23T04:21:19;9.00;;;2.28;;
8562;SDS011;16392;52.508;13.468;2024-03-23T04:23:46;4.57;;;1.38;;
8562;SDS011;16392;52.508;13.468;2024-03-23T04:26:19;14.43;;;2.13;;
8562;SDS011;16392;52.508;13.468;2024-03-23T04:28:45;11.15;;;2.10;;
8562;SDS011;16392;52.508;13.468;2024-03-23T04:31:20;8.05;;;1.95;;
8562;SDS011;16392;52.508;13.468;2024-03-23T04:33:46;3.47;;;1.67;;
8562;SDS011;16392;52.508;13.468;2024-03-23T04:36:13;8.07;;;2.17;;
8562;SDS011;16392;52.508;13.468;2024-03-23T04:38:39;3.55;;;1.65;;
8562;SDS011;16392;52.508;13.468;2024-03-23T04:41:08;10.35;;;1.75;;
8562;SDS011;16392;52.508;13.468;2024-03-23T04:43:35;7.50;;;1.92;;
8562;SDS011;16392;52.508;13.468;2024-03-23T04:46:02;6.25;;;1.83;;
8562;SDS011;16392;52.508;13.468;2024-03-23T04:48:28;6.47;;;1.52;;
8562;SDS011;16392;52.508;13.468;2024-03-23T04:50:55;7.72;;;1.77;;
8562;SDS011;16392;52.508;13.468;2024-03-23T04:53:24;6.40;;;1.65;;
8562;SDS011;16392;52.508;13.468;2024-03-23T04:55:53;4.15;;;2.28;;
8562;SDS011;16392;52.508;13.468;2024-03-23T04:58:22;6.65;;;2.10;;
8562;SDS011;16392;52.508;13.468;2024-03-23T05:00:53;6.68;;;2.33;;
8562;SDS011;16392;52.508;13.468;2024-03-23T05:03:20;4.63;;;2.00;;
8562;SDS011;16392;52.508;13.468;2024-03-23T05:05:46;4.18;;;1.40;;
8562;SDS011;16392;52.508;13.468;2024-03-23T05:08:13;3.08;;;1.27;;
8562;SDS011;16392;52.508;13.468;2024-03-23T05:10:39;3.13;;;1.50;;
8562;SDS011;16392;52.508;13.468;2024-03-23T05:13:07;14.20;;;2.17;;
8562;SDS011;16392;52.508;13.468;2024-03-23T05:15:34;6.40;;;1.60;;
8562;SDS011;16392;52.508;13.468;2024-03-23T05:18:00;5.45;;;1.65;;
8562;SDS011;16392;52.508;13.468;2024-03-23T05:20:26;3.67;;;1.60;;
8562;SDS011;16392;52.508;13.468;2024-03-23T05:22:54;6.35;;;1.83;;
8562;SDS011;16392;52.508;13.468;2024-03-23T05:25:20;5.35;;;1.60;;
8562;SDS011;16392;52.508;13.468;2024-03-23T05:27:47;5.47;;;1.80;;
8562;SDS011;16392;52.508;13.468;2024-03-23T05:30:14;6.68;;;1.83;;
8562;SDS011;16392;52.508;13.468;2024-03-23T05:32:42;3.83;;;1.60;;
8562;SDS011;16392;52.508;13.468;2024-03-23T05:35:08;9.13;;;1.42;;
8562;SDS011;16392;52.508;13.468;2024-03-23T05:37:35;5.93;;;1.50;;
8562;SDS011;16392;52.508;13.468;2024-03-23T05:40:02;2.78;;;1.55;;
8562;SDS011;16392;52.508;13.468;2024-03-23T05:42:30;8.32;;;2.20;;
8562;SDS011;16392;52.508;13.468;2024-03-23T05:44:55;4.30;;;1.65;;
8562;SDS011;16392;52.508;13.468;2024-03-23T05:47:22;7.38;;;2.10;;
8562;SDS011;16392;52.508;13.468;2024-03-23T05:49:49;5.05;;;1.90;;
8562;SDS011;16392;52.508;13.468;2024-03-23T05:52:17;6.97;;;2.13;;
8562;SDS011;16392;52.508;13.468;2024-03-23T05:54:43;3.25;;;1.85;;
8562;SDS011;16392;52.508;13.468;2024-03-23T05:57:09;2.42;;;1.63;;
8562;SDS011;16392;52.508;13.468;2024-03-23T05:59:37;9.02;;;2.55;;
8562;SDS011;16392;52.508;13.468;2024-03-23T06:02:04;6.75;;;1.90;;
8562;SDS011;16392;52.508;13.468;2024-03-23T06:04:29;9.15;;;1.95;;
8562;SDS011;16392;52.508;13.468;2024-03-23T06:06:57;2.50;;;1.83;;
8562;SDS011;16392;52.508;13.468;2024-03-23T06:09:23;6.13;;;2.25;;
8562;SDS011;16392;52.508;13.468;2024-03-23T06:11:50;5.63;;;2.60;;
8562;SDS011;16392;52.508;13.468;2024-03-23T06:14:16;8.98;;;2.90;;
8562;SDS011;16392;52.508;13.468;2024-03-23T06:16:43;9.15;;;2.53;;
8562;SDS011;16392;52.508;13.468;2024-03-23T06:19:09;8.23;;;2.42;;
8562;SDS011;16392;52.508;13.468;2024-03-23T06:21:35;5.65;;;3.08;;
8562;SDS011;16392;52.508;13.468;2024-03-23T06:24:02;6.10;;;2.92;;
8562;SDS011;16392;52.508;13.468;2024-03-23T06:26:30;9.73;;;2.63;;
8562;SDS011;16392;52.508;13.468;2024-03-23T06:28:56;9.32;;;3.78;;
8562;SDS011;16392;52.508;13.468;2024-03-23T06:31:22;10.65;;;2.72;;
8562;SDS011;16392;52.508;13.468;2024-03-23T06:33:48;10.55;;;3.22;;
8562;SDS011;16392;52.508;13.468;2024-03-23T06:36:15;9.55;;;3.13;;
8562;SDS011;16392;52.508;13.468;2024-03-23T06:38:40;5.63;;;2.75;;
8562;SDS011;16392;52.508;13.468;2024-03-23T06:41:08;9.88;;;2.83;;
8562;SDS011;16392;52.508;13.468;2024-03-23T06:43:34;5.55;;;2.60;;
8562;SDS011;16392;52.508;13.468;2024-03-23T06:46:02;9.07;;;3.17;;
8562;SDS011;16392;52.508;13.468;2024-03-23T06:48:29;8.10;;;3.28;;
8562;SDS011;16392;52.508;13.468;2024-03-23T06:50:56;7.97;;;3.08;;
8562;SDS011;16392;52.508;13.468;2024-03-23T06:53:22;12.93;;;3.63;;
8562;SDS011;16392;52.508;13.468;2024-03-23T06:55:50;13.25;;;3.30;;
8562;SDS011;16392;52.508;13.468;2024-03-23T06:58:18;6.05;;;2.28;;
8562;SDS011;16392;52.508;13.468;2024-03-23T07:00:45;5.68;;;2.30;;
8562;SDS011;16392;52.508;13.468;2024-03-23T07:03:11;3.90;;;2.05;;
8562;SDS011;16392;52.508;13.468;2024-03-23T07:05:38;5.63;;;2.40;;
8562;SDS011;16392;52.508;13.468;2024-03-23T07:08:04;5.80;;;2.33;;
8562;SDS011;16392;52.508;13.468;2024-03-23T07:10:31;7.95;;;2.90;;
8562;SDS011;16392;52.508;13.468;2024-03-23T07:12:57;6.00;;;2.70;;
8562;SDS011;16392;52.508;13.468;2024-03-23T07:15:25;9.40;;;2.25;;
8562;SDS011;16392;52.508;13.468;2024-03-23T07:17:50;7.05;;;2.03;;
8562;SDS011;16392;52.508;13.468;2024-03-23T07:20:17;3.55;;;1.88;;
8562;SDS011;16392;52.508;13.468;2024-03-23T07:22:45;5.22;;;2.00;;
8562;SDS011;16392;52.508;13.468;2024-03-23T07:25:12;7.15;;;2.13;;
8562;SDS011;16392;52.508;13.468;2024-03-23T07:27:38;5.20;;;2.13;;
8562;SDS011;16392;52.508;13.468;2024-03-23T07:30:05;5.78;;;1.90;;
8562;SDS011;16392;52.508;13.468;2024-03-23T07:32:34;10.52;;;2.00;;
8562;SDS011;16392;52.508;13.468;2024-03-23T07:35:00;6.20;;;1.80;;
8562;SDS011;16392;52.508;13.468;2024-03-23T07:37:27;7.47;;;2.30;;
8562;SDS011;16392;52.508;13.468;2024-03-23T07:39:53;8.90;;;2.25;;
8562;SDS011;16392;52.508;13.468;2024-03-23T07:42:20;5.05;;;1.92;;
8562;SDS011;16392;52.508;13.468;2024-03-23T07:44:46;12.55;;;2.72;;
8562;SDS011;16392;52.508;13.468;2024-03-23T07:47:12;4.60;;;2.00;;
8562;SDS011;16392;52.508;13.468;2024-03-23T07:49:39;4.35;;;1.30;;
8562;SDS011;16392;52.508;13.468;2024-03-23T07:52:06;5.82;;;1.92;;
8562;SDS011;16392;52.508;13.468;2024-03-23T07:54:33;4.10;;;1.70;;
8562;SDS011;16392;52.508;13.468;2024-03-23T07:56:59;4.20;;;2.10;;
8562;SDS011;16392;52.508;13.468;2024-03-23T07:59:25;10.15;;;1.90;;
8562;SDS011;16392;52.508;13.468;2024-03-23T08:01:52;2.95;;;1.73;;
8562;SDS011;16392;52.508;13.468;2024-03-23T08:04:17;5.13;;;1.83;;
8562;SDS011;16392;52.508;13.468;2024-03-23T08:06:46;4.22;;;1.67;;
8562;SDS011;16392;52.508;13.468;2024-03-23T08:09:12;4.78;;;1.80;;
8562;SDS011;16392;52.508;13.468;2024-03-23T08:11:44;2.90;;;1.60;;
8562;SDS011;16392;52.508;13.468;2024-03-23T08:14:11;2.47;;;1.58;;
8562;SDS011;16392;52.508;13.468;2024-03-23T08:16:38;4.65;;;1.83;;
8562;SDS011;16392;52.508;13.468;2024-03-23T08:19:04;5.30;;;1.10;;
8562;SDS011;16392;52.508;13.468;2024-03-23T08:21:30;6.55;;;1.50;;
8562;SDS011;16392;52.508;13.468;2024-03-23T08:23:57;5.60;;;2.28;;
8562;SDS011;16392;52.508;13.468;2024-03-23T08:26:24;3.13;;;1.17;;
8562;SDS011;16392;52.508;13.468;2024-03-23T08:28:50;5.35;;;1.27;;
8562;SDS011;16392;52.508;13.468;2024-03-23T08:31:16;7.43;;;2.15;;
8562;SDS011;16392;52.508;13.468;2024-03-23T08:33:43;3.55;;;2.42;;
8562;SDS011;16392;52.508;13.468;2024-03-23T08:36:10;1.08;;;0.88;;
8562;SDS011;16392;52.508;13.468;2024-03-23T08:38:37;4.32;;;1.83;;
8562;SDS011;16392;52.508;13.468;2024-03-23T08:41:06;5.13;;;1.27;;
8562;SDS011;16392;52.508;13.468;2024-03-23T08:43:33;4.47;;;1.00;;
8562;SDS011;16392;52.508;13.468;2024-03-23T08:46:03;5.10;;;1.40;;
8562;SDS011;16392;52.508;13.468;2024-03-23T08:48:30;3.45;;;0.82;;
8562;SDS011;16392;52.508;13.468;2024-03-23T08:51:00;3.03;;;1.27;;
8562;SDS011;16392;52.508;13.468;2024-03-23T08:53:27;2.08;;;1.40;;
8562;SDS011;16392;52.508;13.468;2024-03-23T08:55:54;4.53;;;1.35;;
8562;SDS011;16392;52.508;13.468;2024-03-23T08:58:22;3.78;;;1.83;;
8562;SDS011;16392;52.508;13.468;2024-03-23T09:00:50;4.65;;;1.50;;
8562;SDS011;16392;52.508;13.468;2024-03-23T09:03:16;2.97;;;1.52;;
8562;SDS011;16392;52.508;13.468;2024-03-23T09:05:43;8.32;;;2.75;;
8562;SDS011;16392;52.508;13.468;2024-03-23T09:08:08;4.60;;;2.22;;
8562;SDS011;16392;52.508;13.468;2024-03-23T09:10:37;8.88;;;2.30;;
8562;SDS011;16392;52.508;13.468;2024-03-23T09:13:04;3.92;;;1.92;;
8562;SDS011;16392;52.508;13.468;2024-03-23T09:15:32;5.55;;;1.50;;
8562;SDS011;16392;52.508;13.468;2024-03-23T09:17:58;4.95;;;1.92;;
8562;SDS011;16392;52.508;13.468;2024-03-23T09:20:25;7.25;;;1.70;;
8562;SDS011;16392;52.508;13.468;2024-03-23T09:22:51;4.35;;;1.83;;
8562;SDS011;16392;52.508;13.468;2024-03-23T09:25:18;3.33;;;1.55;;
8562;SDS011;16392;52.508;13.468;2024-03-23T09:27:44;3.92;;;1.63;;
8562;SDS011;16392;52.508;13.468;2024-03-23T09:30:12;1.13;;;1.02;;
8562;SDS011;16392;52.508;13.468;2024-03-23T09:32:40;1.73;;;1.15;;
8562;SDS011;16392;52.508;13.468;2024-03-23T09:35:08;1.92;;;1.20;;
8562;SDS011;16392;52.508;13.468;2024-03-23T09:37:34;1.73;;;1.00;;
8562;SDS011;16392;52.508;13.468;2024-03-23T09:42:34;1.55;;;0.77;;
8562;SDS011;16392;52.508;13.468;2024-03-23T09:45:01;4.07;;;1.48;;
8562;SDS011;16392;52.508;13.468;2024-03-23T09:47:27;6.22;;;2.22;;
8562;SDS011;16392;52.508;13.468;2024-03-23T09:49:56;9.32;;;2.58;;
8562;SDS011;16392;52.508;13.468;2024-03-23T09:52:22;5.25;;;2.28;;
8562;SDS011;16392;52.508;13.468;2024-03-23T09:54:49;5.10;;;1.52;;
8562;SDS011;16392;52.508;13.468;2024-03-23T09:57:14;5.07;;;1.50;;
8562;SDS011;16392;52.508;13.468;2024-03-23T09:59:41;6.50;;;1.60;;
8562;SDS011;16392;52.508;13.468;2024-03-23T10:02:07;4.30;;;1.40;;
8562;SDS011;16392;52.508;13.468;2024-03-23T10:04:35;5.80;;;2.00;;
8562;SDS011;16392;52.508;13.468;2024-03-23T10:07:08;5.40;;;1.85;;
8562;SDS011;16392;52.508;13.468;2024-03-23T10:09:37;8.75;;;2.05;;
8562;SDS011;16392;52.508;13.468;2024-03-23T10:12:07;5.45;;;1.63;;
8562;SDS011;16392;52.508;13.468;2024-03-23T10:14:35;2.55;;;1.23;;
8562;SDS011;16392;52.508;13.468;2024-03-23T10:17:11;7.50;;;2.08;;
8562;SDS011;16392;52.508;13.468;2024-03-23T10:19:40;4.47;;;1.33;;
8562;SDS011;16392;52.508;13.468;2024-03-23T10:22:09;5.93;;;1.25;;
8562;SDS011;16392;52.508;13.468;2024-03-23T10:24:36;12.23;;;2.38;;
8562;SDS011;16392;52.508;13.468;2024-03-23T10:27:02;3.65;;;1.90;;
8562;SDS011;16392;52.508;13.468;2024-03-23T10:29:29;5.05;;;1.88;;
8562;SDS011;16392;52.508;13.468;2024-03-23T10:31:55;2.17;;;0.93;;
8562;SDS011;16392;52.508;13.468;2024-03-23T10:34:34;7.50;;;2.10;;
8562;SDS011;16392;52.508;13.468;2024-03-23T10:37:01;2.50;;;1.45;;
8562;SDS011;16392;52.508;13.468;2024-03-23T10:39:31;5.78;;;2.40;;
8562;SDS011;16392;52.508;13.468;2024-03-23T10:41:58;7.07;;;1.88;;
8562;SDS011;16392;52.508;13.468;2024-03-23T10:44:27;4.15;;;1.40;;
8562;SDS011;16392;52.508;13.468;2024-03-23T10:46:56;2.05;;;1.45;;
8562;SDS011;16392;52.508;13.468;2024-03-23T10:49:25;2.25;;;1.17;;
8562;SDS011;16392;52.508;13.468;2024-03-23T10:51:55;3.17;;;1.60;;
8562;SDS011;16392;52.508;13.468;2024-03-23T10:54:23;6.72;;;2.15;;
8562;SDS011;16392;52.508;13.468;2024-03-23T10:56:52;3.00;;;1.65;;
8562;SDS011;16392;52.508;13.468;2024-03-23T10:59:25;7.30;;;2.03;;
8562;SDS011;16392;52.508;13.468;2024-03-23T11:01:56;4.13;;;1.80;;
8562;SDS011;16392;52.508;13.468;2024-03-23T11:04:29;6.72;;;1.75;;
8562;SDS011;16392;52.508;13.468;2024-03-23T11:06:57;8.27;;;1.95;;
8562;SDS011;16392;52.508;13.468;2024-03-23T11:12:27;4.00;;;1.48;;
8562;SDS011;16392;52.508;13.468;2024-03-23T11:14:57;4.28;;;1.48;;
8562;SDS011;16392;52.508;13.468;2024-03-23T11:17:26;5.78;;;1.23;;
8562;SDS011;16392;52.508;13.468;2024-03-23T11:19:54;5.40;;;1.83;;
8562;SDS011;16392;52.508;13.468;2024-03-23T11:22:41;6.57;;;1.67;;
8562;SDS011;16392;52.508;13.468;2024-03-23T11:25:15;6.20;;;1.80;;
8562;SDS011;16392;52.508;13.468;2024-03-23T11:27:49;6.20;;;1.55;;
8562;SDS011;16392;52.508;13.468;2024-03-23T11:30:16;2.80;;;1.27;;
8562;SDS011;16392;52.508;13.468;2024-03-23T11:32:44;3.95;;;1.42;;
8562;SDS011;16392;52.508;13.468;2024-03-23T11:35:11;7.75;;;2.58;;
8562;SDS011;16392;52.508;13.468;2024-03-23T11:38:01;5.57;;;1.75;;
8562;SDS011;16392;52.508;13.468;2024-03-23T11:40:32;6.75;;;1.67;;
8562;SDS011;16392;52.508;13.468;2024-03-23T11:43:01;6.65;;;1.52;;
8562;SDS011;16392;52.508;13.468;2024-03-23T11:45:28;4.78;;;1.70;;
8562;SDS011;16392;52.508;13.468;2024-03-23T11:48:05;8.10;;;1.90;;
8562;SDS011;16392;52.508;13.468;2024-03-23T11:50:32;6.72;;;2.20;;
8562;SDS011;16392;52.508;13.468;2024-03-23T11:53:06;3.40;;;1.50;;
8562;SDS011;16392;52.508;13.468;2024-03-23T11:55:43;5.47;;;1.33;;
8562;SDS011;16392;52.508;13.468;2024-03-23T11:58:14;6.70;;;2.03;;
8562;SDS011;16392;52.508;13.468;2024-03-23T12:00:40;4.78;;;2.03;;
8562;SDS011;16392;52.508;13.468;2024-03-23T12:03:08;8.05;;;2.10;;
8562;SDS011;16392;52.508;13.468;2024-03-23T12:05:35;5.25;;;1.73;;
8562;SDS011;16392;52.508;13.468;2024-03-23T12:08:16;3.65;;;1.83;;
8562;SDS011;16392;52.508;13.468;2024-03-23T12:11:04;3.67;;;1.60;;
8562;SDS011;16392;52.508;13.468;2024-03-23T12:13:32;4.13;;;1.92;;
8562;SDS011;16392;52.508;13.468;2024-03-23T12:16:08;2.58;;;1.50;;
8562;SDS011;16392;52.508;13.468;2024-03-23T12:18:36;3.63;;;1.55;;
8562;SDS011;16392;52.508;13.468;2024-03-23T12:21:04;3.25;;;1.40;;
8562;SDS011;16392;52.508;13.468;2024-03-23T12:23:30;3.25;;;1.42;;
8562;SDS011;16392;52.508;13.468;2024-03-23T12:25:57;5.88;;;2.13;;
8562;SDS011;16392;52.508;13.468;2024-03-23T12:28:23;5.22;;;1.42;;
8562;SDS011;16392;52.508;13.468;2024-03-23T12:30:52;2.83;;;1.50;;
8562;SDS011;16392;52.508;13.468;2024-03-23T12:33:19;5.82;;;1.70;;
8562;SDS011;16392;52.508;13.468;2024-03-23T12:35:46;5.32;;;1.50;;
8562;SDS011;16392;52.508;13.468;2024-03-23T12:38:12;2.03;;;1.40;;
8562;SDS011;16392;52.508;13.468;2024-03-23T12:40:39;4.20;;;1.50;;
8562;SDS011;16392;52.508;13.468;2024-03-23T12:43:06;6.65;;;1.92;;
8562;SDS011;16392;52.508;13.468;2024-03-23T12:45:33;4.15;;;1.58;;
8562;SDS011;16392;52.508;13.468;2024-03-23T12:48:00;3.60;;;1.23;;
8562;SDS011;16392;52.508;13.468;2024-03-23T12:50:30;5.85;;;1.85;;
8562;SDS011;16392;52.508;13.468;2024-03-23T12:52:56;7.90;;;1.35;;
8562;SDS011;16392;52.508;13.468;2024-03-23T12:55:23;4.43;;;1.55;;
8562;SDS011;16392;52.508;13.468;2024-03-23T12:57:50;3.78;;;1.30;;
8562;SDS011;16392;52.508;13.468;2024-03-23T13:00:16;4.57;;;1.65;;
8562;SDS011;16392;52.508;13.468;2024-03-23T13:02:43;5.85;;;1.00;;
8562;SDS011;16392;52.508;13.468;2024-03-23T13:05:12;2.15;;;1.02;;
8562;SDS011;16392;52.508;13.468;2024-03-23T13:07:38;3.70;;;1.10;;
8562;SDS011;16392;52.508;13.468;2024-03-23T13:10:05;5.10;;;1.15;;
8562;SDS011;16392;52.508;13.468;2024-03-23T13:12:31;3.15;;;0.75;;
8562;SDS011;16392;52.508;13.468;2024-03-23T13:14:58;1.55;;;0.73;;
8562;SDS011;16392;52.508;13.468;2024-03-23T13:17:24;3.13;;;1.15;;
8562;SDS011;16392;52.508;13.468;2024-03-23T13:19:52;0.77;;;0.77;;
8562;SDS011;16392;52.508;13.468;2024-03-23T13:22:21;2.05;;;0.95;;
8562;SDS011;16392;52.508;13.468;2024-03-23T13:24:48;1.55;;;0.85;;
8562;SDS011;16392;52.508;13.468;2024-03-23T13:27:14;2.20;;;1.40;;
8562;SDS011;16392;52.508;13.468;2024-03-23T13:29:40;6.00;;;1.52;;
8562;SDS011;16392;52.508;13.468;2024-03-23T13:32:06;3.47;;;1.58;;
8562;SDS011;16392;52.508;13.468;2024-03-23T13:34:34;5.20;;;1.38;;
8562;SDS011;16392;52.508;13.468;2024-03-23T13:37:00;2.60;;;1.15;;
8562;SDS011;16392;52.508;13.468;2024-03-23T13:39:30;2.85;;;1.20;;
8562;SDS011;16392;52.508;13.468;2024-03-23T13:41:56;4.47;;;1.20;;
8562;SDS011;16392;52.508;13.468;2024-03-23T13:44:23;4.65;;;1.27;;
8562;SDS011;16392;52.508;13.468;2024-03-23T13:46:49;2.35;;;1.05;;
8562;SDS011;16392;52.508;13.468;2024-03-23T13:49:24;3.35;;;1.52;;
8562;SDS011;16392;52.508;13.468;2024-03-23T13:51:52;2.72;;;1.52;;
8562;SDS011;16392;52.508;13.468;2024-03-23T13:54:17;4.22;;;1.30;;
8562;SDS011;16392;52.508;13.468;2024-03-23T13:56:46;4.38;;;1.58;;
8562;SDS011;16392;52.508;13.468;2024-03-23T13:59:13;3.13;;;1.65;;
8562;SDS011;16392;52.508;13.468;2024-03-23T14:01:40;4.85;;;1.60;;
8562;SDS011;16392;52.508;13.468;2024-03-23T14:04:07;3.38;;;1.63;;
8562;SDS011;16392;52.508;13.468;2024-03-23T14:06:34;9.77;;;1.73;;
8562;SDS011;16392;52.508;13.468;2024-03-23T14:09:00;3.35;;;1.52;;
8562;SDS011;16392;52.508;13.468;2024-03-23T14:11:29;1.75;;;1.38;;
8562;SDS011;16392;52.508;13.468;2024-03-23T14:13:57;6.85;;;1.95;;
8562;SDS011;16392;52.508;13.468;2024-03-23T14:16:24;3.65;;;1.38;;
8562;SDS011;16392;52.508;13.468;2024-03-23T14:18:49;5.05;;;1.70;;
8562;SDS011;16392;52.508;13.468;2024-03-23T14:21:16;3.38;;;1.63;;
8562;SDS011;16392;52.508;13.468;2024-03-23T14:23:42;2.63;;;1.48;;
8562;SDS011;16392;52.508;13.468;2024-03-23T14:26:08;2.72;;;1.50;;
8562;SDS011;16392;52.508;13.468;2024-03-23T14:28:34;5.55;;;1.55;;
8562;SDS011;16392;52.508;13.468;2024-03-23T14:31:02;4.40;;;1.95;;
8562;SDS011;16392;52.508;13.468;2024-03-23T14:33:32;6.03;;;1.48;;
8562;SDS011;16392;52.508;13.468;2024-03-23T14:35:59;3.10;;;1.45;;
8562;SDS011;16392;52.508;13.468;2024-03-23T14:38:25;5.50;;;1.83;;
8562;SDS011;16392;52.508;13.468;2024-03-23T14:40:52;6.63;;;1.50;;
8562;SDS011;16392;52.508;13.468;2024-03-23T14:43:18;5.40;;;1.83;;
8562;SDS011;16392;52.508;13.468;2024-03-23T14:45:49;4.35;;;1.92;;
8562;SDS011;16392;52.508;13.468;2024-03-23T14:48:33;3.05;;;1.60;;
8562;SDS011;16392;52.508;13.468;2024-03-23T14:51:00;5.60;;;1.75;;
8562;SDS011;16392;52.508;13.468;2024-03-23T14:53:25;5.07;;;1.67;;
8562;SDS011;16392;52.508;13.468;2024-03-23T14:55:54;3.10;;;1.27;;
8562;SDS011;16392;52.508;13.468;2024-03-23T14:58:20;3.42;;;1.20;;
8562;SDS011;16392;52.508;13.468;2024-03-23T15:00:49;3.80;;;1.75;;
8562;SDS011;16392;52.508;13.468;2024-03-23T15:03:17;4.88;;;1.60;;
8562;SDS011;16392;52.508;13.468;2024-03-23T15:05:53;4.53;;;1.30;;
8562;SDS011;16392;52.508;13.468;2024-03-23T15:08:20;1.50;;;0.50;;
8562;SDS011;16392;52.508;13.468;2024-03-23T15:10:47;2.70;;;1.10;;
8562;SDS011;16392;52.508;13.468;2024-03-23T15:13:13;4.25;;;1.40;;
8562;SDS011;16392;52.508;13.468;2024-03-23T15:15:41;3.70;;;1.65;;
8562;SDS011;16392;52.508;13.468;2024-03-23T15:18:09;3.88;;;1.30;;
8562;SDS011;16392;52.508;13.468;2024-03-23T15:20:39;2.25;;;1.30;;
8562;SDS011;16392;52.508;13.468;2024-03-23T15:23:05;7.30;;;2.05;;
8562;SDS011;16392;52.508;13.468;2024-03-23T15:25:31;4.60;;;1.88;;
8562;SDS011;16392;52.508;13.468;2024-03-23T15:27:57;3.42;;;1.90;;
8562;SDS011;16392;52.508;13.468;2024-03-23T15:30:25;3.08;;;1.95;;
8562;SDS011;16392;52.508;13.468;2024-03-23T15:32:51;3.03;;;1.92;;
8562;SDS011;16392;52.508;13.468;2024-03-23T15:35:17;4.03;;;1.92;;
8562;SDS011;16392;52.508;13.468;2024-03-23T15:37:45;5.43;;;2.13;;
8562;SDS011;16392;52.508;13.468;2024-03-23T15:40:12;2.58;;;1.63;;
8562;SDS011;16392;52.508;13.468;2024-03-23T15:42:38;9.15;;;2.53;;
8562;SDS011;16392;52.508;13.468;2024-03-23T15:45:06;6.43;;;2.03;;